createdAt,value
2017-04-08T00:00:10.968Z,927.98
2017-04-08T00:00:30.279Z,928
2017-04-08T00:00:49.568Z,928
2017-04-08T00:01:08.865Z,927.98
2017-04-08T00:01:28.160Z,928
2017-04-08T00:01:47.442Z,928.05
2017-04-08T00:02:06.196Z,928
2017-04-08T00:02:25.465Z,928.06
2017-04-08T00:02:44.753Z,927.97
2017-04-08T00:03:04.030Z,928.01
2017-04-08T00:03:23.353Z,927.99
2017-04-08T00:03:42.109Z,927.96
2017-04-08T00:04:01.426Z,928.01
2017-04-08T00:04:20.738Z,928
2017-04-08T00:04:40.073Z,928.02
2017-04-08T00:04:59.396Z,928.01
2017-04-08T00:05:18.720Z,928
2017-04-08T00:05:38.035Z,928.01
2017-04-08T00:05:56.820Z,927.97
2017-04-08T00:06:16.211Z,928.01
2017-04-08T00:06:35.516Z,928
2017-04-08T00:06:54.816Z,927.96
2017-04-08T00:07:14.125Z,928
2017-04-08T00:07:33.399Z,927.97
2017-04-08T00:07:52.660Z,927.97
2017-04-08T00:08:11.982Z,928.04
2017-04-08T00:08:31.285Z,928
2017-04-08T00:08:50.574Z,928.05
2017-04-08T00:09:09.888Z,928.03
2017-04-08T00:09:29.178Z,928.06
2017-04-08T00:09:47.940Z,928.08
2017-04-08T00:10:07.216Z,928.08
2017-04-08T00:10:26.474Z,928.05
2017-04-08T00:10:45.779Z,928.07
2017-04-08T00:11:05.090Z,928.07
2017-04-08T00:11:24.345Z,928.07
2017-04-08T00:11:43.644Z,928.1
2017-04-08T00:12:02.901Z,928.07
2017-04-08T00:12:21.665Z,928.09
2017-04-08T00:12:40.944Z,928.12
2017-04-08T00:13:00.241Z,928.14
2017-04-08T00:13:19.489Z,928.13
2017-04-08T00:13:38.789Z,928.14
2017-04-08T00:13:57.544Z,928.12
2017-04-08T00:14:16.872Z,928.14
2017-04-08T00:14:36.185Z,928.13
2017-04-08T00:14:54.957Z,928.17
2017-04-08T00:15:14.248Z,928.16
2017-04-08T00:15:33.515Z,928.15
2017-04-08T00:15:52.786Z,928.2
2017-04-08T00:16:12.320Z,928.18
2017-04-08T00:16:31.622Z,928.19
2017-04-08T00:16:50.909Z,928.22
2017-04-08T00:17:10.225Z,928.19
2017-04-08T00:17:29.521Z,928.19
2017-04-08T00:17:48.833Z,928.21
2017-04-08T00:18:08.117Z,928.18
2017-04-08T00:18:27.391Z,928.23
2017-04-08T00:18:46.681Z,928.22
2017-04-08T00:19:05.915Z,928.22
2017-04-08T00:19:25.204Z,928.27
2017-04-08T00:19:44.483Z,928.24
2017-04-08T00:20:03.827Z,928.24
2017-04-08T00:20:23.143Z,928.24
2017-04-08T00:20:42.446Z,928.22
2017-04-08T00:21:01.738Z,928.21
2017-04-08T00:21:21.027Z,928.27
2017-04-08T00:21:40.319Z,928.25
2017-04-08T00:21:59.061Z,928.25
2017-04-08T00:22:18.341Z,928.27
2017-04-08T00:22:37.648Z,928.28
2017-04-08T00:22:56.946Z,928.26
2017-04-08T00:23:16.258Z,928.3
2017-04-08T00:23:35.031Z,928.29
2017-04-08T00:23:54.306Z,928.29
2017-04-08T00:24:13.582Z,928.3
2017-04-08T00:24:32.392Z,928.3
2017-04-08T00:24:51.674Z,928.3
2017-04-08T00:25:10.966Z,928.31
2017-04-08T00:25:30.229Z,928.3
2017-04-08T00:25:49.521Z,928.3
2017-04-08T00:26:08.801Z,928.33
2017-04-08T00:26:28.113Z,928.33
2017-04-08T00:26:47.423Z,928.33
2017-04-08T00:27:06.734Z,928.31
2017-04-08T00:27:26.011Z,928.34
2017-04-08T00:27:45.294Z,928.28
2017-04-08T00:28:04.574Z,928.31
2017-04-08T00:28:23.860Z,928.27
2017-04-08T00:28:43.154Z,928.3
2017-04-08T00:29:02.441Z,928.3
2017-04-08T00:29:21.219Z,928.28
2017-04-08T00:29:39.988Z,928.27
2017-04-08T00:29:59.286Z,928.32
2017-04-08T00:30:18.577Z,928.27
2017-04-08T00:30:37.871Z,928.34
2017-04-08T00:30:57.223Z,928.34
2017-04-08T00:31:16.542Z,928.34
2017-04-08T00:31:35.881Z,928.34
2017-04-08T00:31:55.156Z,928.32
2017-04-08T00:32:14.486Z,928.35
2017-04-08T00:32:33.815Z,928.31
2017-04-08T00:32:53.111Z,928.31
2017-04-08T00:33:11.892Z,928.33
2017-04-08T00:33:45.186Z,928.34
2017-04-08T00:34:04.490Z,928.36
2017-04-08T00:34:23.323Z,928.36
2017-04-08T00:34:42.598Z,928.36
2017-04-08T00:35:01.851Z,928.35
2017-04-08T00:35:21.363Z,928.33
2017-04-08T00:35:40.728Z,928.36
2017-04-08T00:35:59.998Z,928.38
2017-04-08T00:36:19.522Z,928.33
2017-04-08T00:36:38.810Z,928.36
2017-04-08T00:36:58.069Z,928.35
2017-04-08T00:37:16.912Z,928.39
2017-04-08T00:37:36.244Z,928.37
2017-04-08T00:37:55.680Z,928.4
2017-04-08T00:38:15.031Z,928.37
2017-04-08T00:38:34.336Z,928.38
2017-04-08T00:38:53.644Z,928.38
2017-04-08T00:39:12.941Z,928.41
2017-04-08T00:39:32.198Z,928.42
2017-04-08T00:39:51.486Z,928.46
2017-04-08T00:40:10.755Z,928.44
2017-04-08T00:40:33.851Z,928.44
2017-04-08T00:40:53.165Z,928.41
2017-04-08T00:41:12.571Z,928.42
2017-04-08T00:41:32.161Z,928.45
2017-04-08T00:41:51.459Z,928.37
2017-04-08T00:42:10.254Z,928.4
2017-04-08T00:42:29.526Z,928.42
2017-04-08T00:42:48.792Z,928.44
2017-04-08T00:43:07.589Z,928.43
2017-04-08T00:43:26.999Z,928.43
2017-04-08T00:43:46.723Z,928.44
2017-04-08T00:44:06.025Z,928.45
2017-04-08T00:44:25.322Z,928.46
2017-04-08T00:44:44.626Z,928.46
2017-04-08T00:45:03.928Z,928.4
2017-04-08T00:45:23.249Z,928.45
2017-04-08T00:45:42.736Z,928.45
2017-04-08T00:46:02.050Z,928.46
2017-04-08T00:46:21.361Z,928.44
2017-04-08T00:46:40.905Z,928.46
2017-04-08T00:47:00.251Z,928.43
2017-04-08T00:47:19.586Z,928.44
2017-04-08T00:47:38.961Z,928.43
2017-04-08T00:47:58.335Z,928.41
2017-04-08T00:48:17.210Z,928.44
2017-04-08T00:48:36.538Z,928.45
2017-04-08T00:48:55.861Z,928.45
2017-04-08T00:49:15.147Z,928.38
2017-04-08T00:49:34.446Z,928.41
2017-04-08T00:49:53.747Z,928.4
2017-04-08T00:50:13.005Z,928.44
2017-04-08T00:50:32.299Z,928.43
2017-04-08T00:50:51.555Z,928.38
2017-04-08T00:51:10.385Z,928.39
2017-04-08T00:51:29.730Z,928.43
2017-04-08T00:51:49.040Z,928.41
2017-04-08T00:52:07.906Z,928.42
2017-04-08T00:52:27.250Z,928.38
2017-04-08T00:52:46.565Z,928.41
2017-04-08T00:53:05.867Z,928.37
2017-04-08T00:53:25.221Z,928.35
2017-04-08T00:53:44.522Z,928.37
2017-04-08T00:54:03.834Z,928.31
2017-04-08T00:54:23.179Z,928.34
2017-04-08T00:54:42.453Z,928.31
2017-04-08T00:55:01.782Z,928.31
2017-04-08T00:55:21.106Z,928.29
2017-04-08T00:55:40.401Z,928.29
2017-04-08T00:55:58.699Z,928.25
2017-04-08T00:56:18.143Z,928.25
2017-04-08T00:56:37.417Z,928.28
2017-04-08T00:56:56.207Z,928.25
2017-04-08T00:57:15.509Z,928.25
2017-04-08T00:57:34.790Z,928.26
2017-04-08T00:57:54.090Z,928.28
2017-04-08T00:58:13.372Z,928.27
2017-04-08T00:58:32.689Z,928.28
2017-04-08T00:58:50.966Z,928.27
2017-04-08T00:59:10.317Z,928.26
2017-04-08T00:59:29.608Z,928.28
2017-04-08T00:59:48.867Z,928.26
2017-04-08T01:00:08.164Z,928.26
2017-04-08T01:00:27.476Z,928.29
2017-04-08T01:00:47.180Z,928.28
2017-04-08T01:01:06.483Z,928.28
2017-04-08T01:01:25.787Z,928.33
2017-04-08T01:01:45.085Z,928.28
2017-04-08T01:02:04.351Z,928.32
2017-04-08T01:02:22.620Z,928.31
2017-04-08T01:02:40.872Z,928.3
2017-04-08T01:03:00.183Z,928.33
2017-04-08T01:03:19.490Z,928.32
2017-04-08T01:03:38.785Z,928.37
2017-04-08T01:03:58.070Z,928.33
2017-04-08T01:04:17.351Z,928.4
2017-04-08T01:04:36.662Z,928.37
2017-04-08T01:04:55.947Z,928.37
2017-04-08T01:05:14.701Z,928.35
2017-04-08T01:05:33.966Z,928.36
2017-04-08T01:05:52.742Z,928.37
2017-04-08T01:06:12.209Z,928.42
2017-04-08T01:06:31.500Z,928.42
2017-04-08T01:06:50.817Z,928.39
2017-04-08T01:07:10.122Z,928.44
2017-04-08T01:07:29.410Z,928.4
2017-04-08T01:07:48.720Z,928.4
2017-04-08T01:08:08.042Z,928.41
2017-04-08T01:08:26.830Z,928.4
2017-04-08T01:08:46.114Z,928.46
2017-04-08T01:09:05.405Z,928.44
2017-04-08T01:09:24.711Z,928.41
2017-04-08T01:09:43.470Z,928.44
2017-04-08T01:10:02.754Z,928.44
2017-04-08T01:10:22.031Z,928.45
2017-04-08T01:10:41.341Z,928.42
2017-04-08T01:11:00.124Z,928.42
2017-04-08T01:11:19.469Z,928.42
2017-04-08T01:11:38.777Z,928.44
2017-04-08T01:11:58.058Z,928.41
2017-04-08T01:12:17.355Z,928.4
2017-04-08T01:12:36.655Z,928.41
2017-04-08T01:12:55.924Z,928.4
2017-04-08T01:13:15.203Z,928.41
2017-04-08T01:13:34.488Z,928.41
2017-04-08T01:13:53.767Z,928.38
2017-04-08T01:14:13.062Z,928.41
2017-04-08T01:14:31.809Z,928.38
2017-04-08T01:14:51.083Z,928.4
2017-04-08T01:15:09.886Z,928.4
2017-04-08T01:15:29.180Z,928.38
2017-04-08T01:15:48.459Z,928.41
2017-04-08T01:16:07.716Z,928.35
2017-04-08T01:16:27.023Z,928.37
2017-04-08T01:16:45.779Z,928.34
2017-04-08T01:17:05.032Z,928.38
2017-04-08T01:17:24.363Z,928.4
2017-04-08T01:17:43.663Z,928.36
2017-04-08T01:18:02.938Z,928.35
2017-04-08T01:18:21.740Z,928.37
2017-04-08T01:18:41.059Z,928.35
2017-04-08T01:19:00.359Z,928.38
2017-04-08T01:19:19.697Z,928.38
2017-04-08T01:19:38.473Z,928.36
2017-04-08T01:19:57.740Z,928.37
2017-04-08T01:20:17.014Z,928.34
2017-04-08T01:20:36.287Z,928.34
2017-04-08T01:20:55.636Z,928.31
2017-04-08T01:21:15.241Z,928.36
2017-04-08T01:21:34.602Z,928.31
2017-04-08T01:21:53.925Z,928.31
2017-04-08T01:22:13.217Z,928.29
2017-04-08T01:22:32.501Z,928.29
2017-04-08T01:22:51.818Z,928.31
2017-04-08T01:23:11.118Z,928.25
2017-04-08T01:23:30.482Z,928.27
2017-04-08T01:23:49.773Z,928.25
2017-04-08T01:24:09.091Z,928.25
2017-04-08T01:24:28.384Z,928.22
2017-04-08T01:24:47.698Z,928.22
2017-04-08T01:25:07.075Z,928.23
2017-04-08T01:25:26.406Z,928.25
2017-04-08T01:25:45.789Z,928.26
2017-04-08T01:26:05.140Z,928.23
2017-04-08T01:26:24.017Z,928.2
2017-04-08T01:26:43.569Z,928.22
2017-04-08T01:27:02.936Z,928.19
2017-04-08T01:27:22.351Z,928.21
2017-04-08T01:27:41.626Z,928.21
2017-04-08T01:28:00.383Z,928.2
2017-04-08T01:28:19.661Z,928.15
2017-04-08T01:28:38.961Z,928.16
2017-04-08T01:28:58.276Z,928.16
2017-04-08T01:29:17.551Z,928.15
2017-04-08T01:29:36.892Z,928.14
2017-04-08T01:29:56.230Z,928.17
2017-04-08T01:30:15.527Z,928.17
2017-04-08T01:30:34.860Z,928.13
2017-04-08T01:30:54.124Z,928.11
2017-04-08T01:31:12.890Z,928.14
2017-04-08T01:31:32.159Z,928.1
2017-04-08T01:31:51.475Z,928.08
2017-04-08T01:32:10.225Z,928.15
2017-04-08T01:32:29.562Z,928.1
2017-04-08T01:32:48.845Z,928.1
2017-04-08T01:33:07.640Z,928.03
2017-04-08T01:33:26.413Z,928.03
2017-04-08T01:33:45.696Z,928.04
2017-04-08T01:34:04.995Z,928.03
2017-04-08T01:34:24.309Z,928.02
2017-04-08T01:34:43.603Z,928
2017-04-08T01:35:02.878Z,928
2017-04-08T01:35:22.241Z,927.97
2017-04-08T01:35:41.510Z,927.99
2017-04-08T01:36:00.798Z,927.97
2017-04-08T01:36:19.909Z,927.97
2017-04-08T01:36:39.236Z,927.96
2017-04-08T01:36:58.584Z,927.94
2017-04-08T01:37:17.895Z,927.96
2017-04-08T01:37:37.363Z,927.95
2017-04-08T01:37:56.644Z,927.93
2017-04-08T01:38:15.423Z,927.97
2017-04-08T01:38:34.684Z,927.95
2017-04-08T01:38:53.958Z,927.93
2017-04-08T01:39:12.721Z,927.93
2017-04-08T01:39:31.988Z,927.95
2017-04-08T01:39:51.297Z,927.94
2017-04-08T01:40:10.590Z,927.95
2017-04-08T01:40:29.906Z,927.9
2017-04-08T01:40:49.661Z,927.98
2017-04-08T01:41:09.008Z,927.97
2017-04-08T01:41:27.289Z,927.97
2017-04-08T01:41:46.080Z,927.94
2017-04-08T01:42:05.539Z,928
2017-04-08T01:42:24.858Z,927.97
2017-04-08T01:42:44.150Z,927.99
2017-04-08T01:43:03.446Z,927.96
2017-04-08T01:43:22.737Z,927.97
2017-04-08T01:43:42.079Z,928
2017-04-08T01:44:01.359Z,928
2017-04-08T01:44:20.644Z,928.04
2017-04-08T01:44:40.642Z,927.99
2017-04-08T01:44:58.966Z,927.97
2017-04-08T01:45:18.266Z,928
2017-04-08T01:45:37.547Z,928
2017-04-08T01:45:56.847Z,928.06
2017-04-08T01:46:16.205Z,928.02
2017-04-08T01:46:35.007Z,928.03
2017-04-08T01:46:54.407Z,928.05
2017-04-08T01:47:13.217Z,928.02
2017-04-08T01:47:32.530Z,928.05
2017-04-08T01:47:51.862Z,928.01
2017-04-08T01:48:11.158Z,928.07
2017-04-08T01:48:30.466Z,928.06
2017-04-08T01:48:49.891Z,928.05
2017-04-08T01:49:08.702Z,928.08
2017-04-08T01:49:27.952Z,928.14
2017-04-08T01:49:47.246Z,928.09
2017-04-08T01:50:06.655Z,928.09
2017-04-08T01:50:26.409Z,928.11
2017-04-08T01:50:45.736Z,928.06
2017-04-08T01:51:05.105Z,928.08
2017-04-08T01:51:23.908Z,928.1
2017-04-08T01:51:43.237Z,928.08
2017-04-08T01:52:02.532Z,928.06
2017-04-08T01:52:21.342Z,928.08
2017-04-08T01:52:40.666Z,928.11
2017-04-08T01:52:59.953Z,928.08
2017-04-08T01:53:19.286Z,928.09
2017-04-08T01:53:38.843Z,928.07
2017-04-08T01:53:58.130Z,928.09
2017-04-08T01:54:17.983Z,928.1
2017-04-08T01:54:37.337Z,928.07
2017-04-08T01:54:56.679Z,928.1
2017-04-08T01:55:15.463Z,928.11
2017-04-08T01:55:34.754Z,928.09
2017-04-08T01:55:54.057Z,928.06
2017-04-08T01:56:13.383Z,928.1
2017-04-08T01:56:32.705Z,928.1
2017-04-08T01:56:52.015Z,928.08
2017-04-08T01:57:11.568Z,928.08
2017-04-08T01:57:30.845Z,928.11
2017-04-08T01:57:50.135Z,928.12
2017-04-08T01:58:08.908Z,928.09
2017-04-08T01:58:28.225Z,928.07
2017-04-08T01:58:47.517Z,928.14
2017-04-08T01:59:06.820Z,928.11
2017-04-08T01:59:26.143Z,928.12
2017-04-08T01:59:45.388Z,928.12
2017-04-08T02:00:04.663Z,928.12
2017-04-08T02:00:23.944Z,928.12
2017-04-08T02:00:43.241Z,928.13
2017-04-08T02:01:02.024Z,928.15
2017-04-08T02:01:21.301Z,928.16
2017-04-08T02:01:40.562Z,928.15
2017-04-08T02:01:59.878Z,928.21
2017-04-08T02:02:19.154Z,928.17
2017-04-08T02:02:38.440Z,928.16
2017-04-08T02:02:57.717Z,928.18
2017-04-08T02:03:17.013Z,928.21
2017-04-08T02:03:36.291Z,928.22
2017-04-08T02:03:55.583Z,928.22
2017-04-08T02:04:14.384Z,928.24
2017-04-08T02:04:33.693Z,928.26
2017-04-08T02:04:52.978Z,928.26
2017-04-08T02:05:12.286Z,928.27
2017-04-08T02:05:31.587Z,928.25
2017-04-08T02:05:50.888Z,928.22
2017-04-08T02:06:10.159Z,928.24
2017-04-08T02:06:28.914Z,928.24
2017-04-08T02:06:48.235Z,928.22
2017-04-08T02:07:07.557Z,928.24
2017-04-08T02:07:26.354Z,928.28
2017-04-08T02:07:45.652Z,928.25
2017-04-08T02:08:04.939Z,928.26
2017-04-08T02:08:24.251Z,928.26
2017-04-08T02:08:43.030Z,928.28
2017-04-08T02:09:01.800Z,928.3
2017-04-08T02:09:21.103Z,928.25
2017-04-08T02:09:39.359Z,928.28
2017-04-08T02:09:58.137Z,928.25
2017-04-08T02:10:17.418Z,928.28
2017-04-08T02:10:36.739Z,928.28
2017-04-08T02:10:56.073Z,928.28
2017-04-08T02:11:15.600Z,928.28
2017-04-08T02:11:34.895Z,928.3
2017-04-08T02:11:53.167Z,928.29
2017-04-08T02:12:11.962Z,928.31
2017-04-08T02:12:30.244Z,928.34
2017-04-08T02:12:49.516Z,928.33
2017-04-08T02:13:08.777Z,928.32
2017-04-08T02:13:28.071Z,928.32
2017-04-08T02:13:47.352Z,928.33
2017-04-08T02:14:06.647Z,928.32
2017-04-08T02:14:25.968Z,928.36
2017-04-08T02:14:44.736Z,928.33
2017-04-08T02:15:04.085Z,928.36
2017-04-08T02:15:22.870Z,928.35
2017-04-08T02:15:42.152Z,928.33
2017-04-08T02:16:01.446Z,928.33
2017-04-08T02:16:20.791Z,928.39
2017-04-08T02:16:40.076Z,928.35
2017-04-08T02:16:59.404Z,928.36
2017-04-08T02:17:18.698Z,928.37
2017-04-08T02:17:37.998Z,928.3
2017-04-08T02:17:57.318Z,928.34
2017-04-08T02:18:16.621Z,928.34
2017-04-08T02:18:35.930Z,928.35
2017-04-08T02:18:55.207Z,928.34
2017-04-08T02:19:14.480Z,928.36
2017-04-08T02:19:33.825Z,928.36
2017-04-08T02:19:53.105Z,928.38
2017-04-08T02:20:12.419Z,928.36
2017-04-08T02:20:31.710Z,928.36
2017-04-08T02:20:51.012Z,928.36
2017-04-08T02:21:10.343Z,928.37
2017-04-08T02:21:29.164Z,928.33
2017-04-08T02:21:48.447Z,928.36
2017-04-08T02:22:07.760Z,928.3
2017-04-08T02:22:26.541Z,928.36
2017-04-08T02:22:45.869Z,928.4
2017-04-08T02:23:04.635Z,928.38
2017-04-08T02:23:23.990Z,928.38
2017-04-08T02:23:43.298Z,928.36
2017-04-08T02:24:02.633Z,928.34
2017-04-08T02:24:21.929Z,928.34
2017-04-08T02:24:41.203Z,928.33
2017-04-08T02:25:00.550Z,928.34
2017-04-08T02:25:19.836Z,928.32
2017-04-08T02:25:39.091Z,928.35
2017-04-08T02:25:58.367Z,928.32
2017-04-08T02:26:17.601Z,928.34
2017-04-08T02:26:36.919Z,928.31
2017-04-08T02:26:55.693Z,928.34
2017-04-08T02:27:15.009Z,928.31
2017-04-08T02:27:34.294Z,928.34
2017-04-08T02:27:53.548Z,928.33
2017-04-08T02:28:12.843Z,928.36
2017-04-08T02:28:32.150Z,928.37
2017-04-08T02:28:51.454Z,928.38
2017-04-08T02:29:10.234Z,928.34
2017-04-08T02:29:29.546Z,928.34
2017-04-08T02:29:48.815Z,928.35
2017-04-08T02:30:08.311Z,928.35
2017-04-08T02:30:27.608Z,928.37
2017-04-08T02:30:46.911Z,928.36
2017-04-08T02:31:06.209Z,928.37
2017-04-08T02:31:25.023Z,928.34
2017-04-08T02:31:44.342Z,928.32
2017-04-08T02:32:03.145Z,928.32
2017-04-08T02:32:21.885Z,928.36
2017-04-08T02:32:41.167Z,928.36
2017-04-08T02:33:00.445Z,928.35
2017-04-08T02:33:19.228Z,928.38
2017-04-08T02:33:38.511Z,928.36
2017-04-08T02:33:57.827Z,928.35
2017-04-08T02:34:16.631Z,928.36
2017-04-08T02:34:35.916Z,928.38
2017-04-08T02:34:55.208Z,928.35
2017-04-08T02:35:14.475Z,928.37
2017-04-08T02:35:33.757Z,928.34
2017-04-08T02:35:53.020Z,928.35
2017-04-08T02:36:12.326Z,928.32
2017-04-08T02:36:31.636Z,928.35
2017-04-08T02:36:50.453Z,928.36
2017-04-08T02:37:09.711Z,928.36
2017-04-08T02:37:28.978Z,928.33
2017-04-08T02:37:47.744Z,928.33
2017-04-08T02:38:07.022Z,928.35
2017-04-08T02:38:26.292Z,928.34
2017-04-08T02:38:45.582Z,928.37
2017-04-08T02:39:04.898Z,928.33
2017-04-08T02:39:24.167Z,928.35
2017-04-08T02:39:43.455Z,928.34
2017-04-08T02:40:02.736Z,928.36
2017-04-08T02:40:22.207Z,928.36
2017-04-08T02:40:41.460Z,928.36
2017-04-08T02:41:00.790Z,928.37
2017-04-08T02:41:20.059Z,928.34
2017-04-08T02:41:38.855Z,928.37
2017-04-08T02:41:58.139Z,928.4
2017-04-08T02:42:16.912Z,928.37
2017-04-08T02:42:36.215Z,928.38
2017-04-08T02:42:55.504Z,928.36
2017-04-08T02:43:14.774Z,928.37
2017-04-08T02:43:34.070Z,928.35
2017-04-08T02:43:53.399Z,928.35
2017-04-08T02:44:12.671Z,928.34
2017-04-08T02:44:31.950Z,928.33
2017-04-08T02:44:51.251Z,928.36
2017-04-08T02:45:10.550Z,928.35
2017-04-08T02:45:29.846Z,928.37
2017-04-08T02:45:49.150Z,928.34
2017-04-08T02:46:07.906Z,928.33
2017-04-08T02:46:26.703Z,928.35
2017-04-08T02:46:46.006Z,928.35
2017-04-08T02:47:04.816Z,928.36
2017-04-08T02:47:23.564Z,928.36
2017-04-08T02:47:42.882Z,928.34
2017-04-08T02:48:02.159Z,928.37
2017-04-08T02:48:21.436Z,928.32
2017-04-08T02:48:40.699Z,928.32
2017-04-08T02:48:59.971Z,928.3
2017-04-08T02:49:19.260Z,928.3
2017-04-08T02:49:38.544Z,928.31
2017-04-08T02:49:57.792Z,928.32
2017-04-08T02:50:17.082Z,928.3
2017-04-08T02:50:36.345Z,928.27
2017-04-08T02:50:55.630Z,928.27
2017-04-08T02:51:15.018Z,928.29
2017-04-08T02:51:33.775Z,928.28
2017-04-08T02:51:53.053Z,928.28
2017-04-08T02:52:11.830Z,928.26
2017-04-08T02:52:30.609Z,928.27
2017-04-08T02:52:49.911Z,928.24
2017-04-08T02:53:09.199Z,928.25
2017-04-08T02:53:28.469Z,928.25
2017-04-08T02:53:47.766Z,928.24
2017-04-08T02:54:07.073Z,928.24
2017-04-08T02:54:26.366Z,928.25
2017-04-08T02:54:45.658Z,928.26
2017-04-08T02:55:04.959Z,928.25
2017-04-08T02:55:23.724Z,928.23
2017-04-08T02:55:43.014Z,928.2
2017-04-08T02:56:02.379Z,928.23
2017-04-08T02:56:21.650Z,928.18
2017-04-08T02:56:40.441Z,928.2
2017-04-08T02:56:59.743Z,928.19
2017-04-08T02:57:19.022Z,928.19
2017-04-08T02:57:38.312Z,928.13
2017-04-08T02:57:57.639Z,928.16
2017-04-08T02:58:16.914Z,928.18
2017-04-08T02:58:36.145Z,928.15
2017-04-08T02:58:54.914Z,928.14
2017-04-08T02:59:14.224Z,928.13
2017-04-08T02:59:33.487Z,928.16
2017-04-08T02:59:52.760Z,928.15
2017-04-08T03:00:12.016Z,928.1
2017-04-08T03:00:31.306Z,928.13
2017-04-08T03:00:50.561Z,928.14
2017-04-08T03:01:10.168Z,928.11
2017-04-08T03:01:29.468Z,928.11
2017-04-08T03:01:48.211Z,928.12
2017-04-08T03:02:07.532Z,928.1
2017-04-08T03:02:26.830Z,928.09
2017-04-08T03:02:46.092Z,928.12
2017-04-08T03:03:05.386Z,928.08
2017-04-08T03:03:24.673Z,928.08
2017-04-08T03:03:43.983Z,928.07
2017-04-08T03:04:03.285Z,928.06
2017-04-08T03:04:22.581Z,928.05
2017-04-08T03:04:41.863Z,928.05
2017-04-08T03:05:01.162Z,928.09
2017-04-08T03:05:20.491Z,928.09
2017-04-08T03:05:39.785Z,928.07
2017-04-08T03:05:59.086Z,928.04
2017-04-08T03:06:18.382Z,928.08
2017-04-08T03:06:37.668Z,928.03
2017-04-08T03:06:56.988Z,928.03
2017-04-08T03:07:15.758Z,928.03
2017-04-08T03:07:35.058Z,928.04
2017-04-08T03:07:54.324Z,928.05
2017-04-08T03:08:13.623Z,928.03
2017-04-08T03:08:32.896Z,928.05
2017-04-08T03:08:51.692Z,928.04
2017-04-08T03:09:11.000Z,928.04
2017-04-08T03:09:30.267Z,928.08
2017-04-08T03:09:49.562Z,928.06
2017-04-08T03:10:08.862Z,928.05
2017-04-08T03:10:28.155Z,928.04
2017-04-08T03:10:47.474Z,928.05
2017-04-08T03:11:06.760Z,928.04
2017-04-08T03:11:26.092Z,928.06
2017-04-08T03:11:45.388Z,928.04
2017-04-08T03:12:04.689Z,928.06
2017-04-08T03:12:23.472Z,928.07
2017-04-08T03:12:42.782Z,928.05
2017-04-08T03:13:02.042Z,928.06
2017-04-08T03:13:20.816Z,928.04
2017-04-08T03:13:40.115Z,928.04
2017-04-08T03:13:59.408Z,928.02
2017-04-08T03:14:18.697Z,928.05
2017-04-08T03:14:37.996Z,928.03
2017-04-08T03:14:57.271Z,928.02
2017-04-08T03:15:16.081Z,928.01
2017-04-08T03:15:35.415Z,928.03
2017-04-08T03:15:54.707Z,928.02
2017-04-08T03:16:14.131Z,927.99
2017-04-08T03:16:33.415Z,927.99
2017-04-08T03:16:52.701Z,927.98
2017-04-08T03:17:12.007Z,927.98
2017-04-08T03:17:31.308Z,927.97
2017-04-08T03:17:50.609Z,927.98
2017-04-08T03:18:09.905Z,927.98
2017-04-08T03:18:29.231Z,927.98
2017-04-08T03:18:48.518Z,927.96
2017-04-08T03:19:07.810Z,927.94
2017-04-08T03:19:26.603Z,927.97
2017-04-08T03:19:45.900Z,927.92
2017-04-08T03:20:04.700Z,927.91
2017-04-08T03:20:23.477Z,927.9
2017-04-08T03:20:42.745Z,927.92
2017-04-08T03:21:02.013Z,927.89
2017-04-08T03:21:20.277Z,927.91
2017-04-08T03:21:39.541Z,927.89
2017-04-08T03:21:58.799Z,927.88
2017-04-08T03:22:17.065Z,927.88
2017-04-08T03:22:36.403Z,927.89
2017-04-08T03:22:55.703Z,927.88
2017-04-08T03:23:15.002Z,927.88
2017-04-08T03:23:33.755Z,927.85
2017-04-08T03:23:53.032Z,927.88
2017-04-08T03:24:12.295Z,927.89
2017-04-08T03:24:31.612Z,927.86
2017-04-08T03:24:50.922Z,927.86
2017-04-08T03:25:09.722Z,927.9
2017-04-08T03:25:28.980Z,927.87
2017-04-08T03:25:47.756Z,927.87
2017-04-08T03:26:07.173Z,927.92
2017-04-08T03:26:26.454Z,927.92
2017-04-08T03:26:45.717Z,927.87
2017-04-08T03:27:05.016Z,927.9
2017-04-08T03:27:23.824Z,927.92
2017-04-08T03:27:42.612Z,927.89
2017-04-08T03:28:01.913Z,927.92
2017-04-08T03:28:20.703Z,927.92
2017-04-08T03:28:39.987Z,927.88
2017-04-08T03:28:59.298Z,927.89
2017-04-08T03:29:18.088Z,927.91
2017-04-08T03:29:37.373Z,927.91
2017-04-08T03:29:56.681Z,927.91
2017-04-08T03:30:14.935Z,927.91
2017-04-08T03:30:34.221Z,927.86
2017-04-08T03:30:53.480Z,927.89
2017-04-08T03:31:12.760Z,927.87
2017-04-08T03:31:32.056Z,927.86
2017-04-08T03:31:50.848Z,927.88
2017-04-08T03:32:10.142Z,927.89
2017-04-08T03:32:29.447Z,927.88
2017-04-08T03:32:48.751Z,927.86
2017-04-08T03:33:07.524Z,927.86
2017-04-08T03:33:26.801Z,927.88
2017-04-08T03:33:46.119Z,927.88
2017-04-08T03:34:05.422Z,927.89
2017-04-08T03:34:24.718Z,927.86
2017-04-08T03:34:44.022Z,927.83
2017-04-08T03:35:03.306Z,927.84
2017-04-08T03:35:22.557Z,927.85
2017-04-08T03:35:41.831Z,927.81
2017-04-08T03:36:01.137Z,927.83
2017-04-08T03:36:20.419Z,927.85
2017-04-08T03:36:39.711Z,927.84
2017-04-08T03:36:58.992Z,927.83
2017-04-08T03:37:18.332Z,927.82
2017-04-08T03:37:37.633Z,927.83
2017-04-08T03:37:56.925Z,927.81
2017-04-08T03:38:15.728Z,927.78
2017-04-08T03:38:35.027Z,927.8
2017-04-08T03:38:54.320Z,927.81
2017-04-08T03:39:13.609Z,927.81
2017-04-08T03:39:32.918Z,927.76
2017-04-08T03:39:52.211Z,927.77
2017-04-08T03:40:11.677Z,927.77
2017-04-08T03:40:31.007Z,927.76
2017-04-08T03:40:50.564Z,927.78
2017-04-08T03:41:24.581Z,927.74
2017-04-08T03:41:58.798Z,927.76
2017-04-08T03:42:17.563Z,927.77
2017-04-08T03:42:36.866Z,927.77
2017-04-08T03:42:56.164Z,927.75
2017-04-08T03:43:15.448Z,927.78
2017-04-08T03:43:34.753Z,927.77
2017-04-08T03:43:54.039Z,927.76
2017-04-08T03:44:13.305Z,927.8
2017-04-08T03:44:32.592Z,927.79
2017-04-08T03:44:51.876Z,927.77
2017-04-08T03:45:11.167Z,927.77
2017-04-08T03:45:30.452Z,927.8
2017-04-08T03:45:49.765Z,927.76
2017-04-08T03:46:08.526Z,927.79
2017-04-08T03:46:27.831Z,927.75
2017-04-08T03:46:47.131Z,927.78
2017-04-08T03:47:06.411Z,927.79
2017-04-08T03:47:25.662Z,927.81
2017-04-08T03:47:44.939Z,927.76
2017-04-08T03:48:03.694Z,927.79
2017-04-08T03:48:23.002Z,927.82
2017-04-08T03:48:42.307Z,927.8
2017-04-08T03:49:01.584Z,927.81
2017-04-08T03:49:20.877Z,927.79
2017-04-08T03:49:40.156Z,927.8
2017-04-08T03:49:59.442Z,927.76
2017-04-08T03:50:18.227Z,927.79
2017-04-08T03:50:37.507Z,927.81
2017-04-08T03:50:56.781Z,927.8
2017-04-08T03:51:16.079Z,927.79
2017-04-08T03:51:34.844Z,927.77
2017-04-08T03:51:54.144Z,927.79
2017-04-08T03:52:12.898Z,927.75
2017-04-08T03:52:32.173Z,927.74
2017-04-08T03:52:51.495Z,927.73
2017-04-08T03:53:10.760Z,927.76
2017-04-08T03:53:29.559Z,927.72
2017-04-08T03:53:48.864Z,927.74
2017-04-08T03:54:08.178Z,927.76
2017-04-08T03:54:27.459Z,927.73
2017-04-08T03:54:46.754Z,927.73
2017-04-08T03:55:05.548Z,927.7
2017-04-08T03:55:24.847Z,927.69
2017-04-08T03:55:43.617Z,927.71
2017-04-08T03:56:02.380Z,927.65
2017-04-08T03:56:21.664Z,927.65
2017-04-08T03:56:41.582Z,927.65
2017-04-08T03:57:00.784Z,927.66
2017-04-08T03:57:20.789Z,927.64
2017-04-08T03:57:40.760Z,927.67
2017-04-08T03:58:00.773Z,927.69
2017-04-08T03:58:20.757Z,927.66
2017-04-08T03:58:40.789Z,927.66
2017-04-08T03:59:00.780Z,927.63
2017-04-08T03:59:20.809Z,927.65
2017-04-08T03:59:40.218Z,927.66
2017-04-08T04:00:00.214Z,927.66
2017-04-08T04:00:19.649Z,927.61
2017-04-08T04:00:53.494Z,927.64
2017-04-08T04:01:13.504Z,927.62
2017-04-08T04:01:33.533Z,927.66
2017-04-08T04:01:53.547Z,927.64